BAW87L LWSK-LTFJ
Flight info
| Callsign | BAW87L |
|---|---|
| Flight time | 1h 18m |
| Altitude | 37000 |
| Route | SIN2C SIN T215 VELBA/N0439F370 P127 ROVDO N739 ADORU UM19 IBODU IBODU1H |
| Aircraft | A319/M-SDE3FGHIRWY/LB1 |
Departure
| Time | 2026-05-08 18:32 |
|---|---|
| Airport | Skopje International Airport (LWSK) |
Arrival
| Time | 2026-05-08 19:50 |
|---|---|
| Airport | Istanbul Sabiha Gökçen International Airport (LTFJ) |
| Time | Latitude | Longitude | Altitude | Speed | Heading |
|---|---|---|---|---|---|
| 2026-05-08 17:55 | 41.96038 | 21.62601 | 783 ft | 0 kts | 64° |
| 2026-05-08 18:21 | 41.96032 | 21.62583 | 799 ft | 4 kts | 76° |
| 2026-05-08 18:21 | 41.96030 | 21.62547 | 783 ft | 4 kts | 98° |
| 2026-05-08 18:21 | 41.96032 | 21.62530 | 783 ft | 1 kts | 100° |
| 2026-05-08 18:22 | 41.96032 | 21.62529 | 783 ft | 0 kts | 100° |
| 2026-05-08 18:25 | 41.96031 | 21.62533 | 777 ft | 1 kts | 107° |
| 2026-05-08 18:25 | 41.96019 | 21.62546 | 777 ft | 3 kts | 150° |
| 2026-05-08 18:25 | 41.95990 | 21.62553 | 782 ft | 5 kts | 169° |
| 2026-05-08 18:25 | 41.95944 | 21.62563 | 782 ft | 8 kts | 189° |
| 2026-05-08 18:26 | 41.95911 | 21.62506 | 782 ft | 8 kts | 211° |
| 2026-05-08 18:26 | 41.95852 | 21.62523 | 781 ft | 10 kts | 166° |
| 2026-05-08 18:26 | 41.95775 | 21.62549 | 781 ft | 13 kts | 165° |
| 2026-05-08 18:26 | 41.95679 | 21.62586 | 780 ft | 16 kts | 164° |
| 2026-05-08 18:27 | 41.95564 | 21.62626 | 780 ft | 19 kts | 166° |
| 2026-05-08 18:27 | 41.95478 | 21.62656 | 779 ft | 21 kts | 166° |
| 2026-05-08 18:27 | 41.95297 | 21.62717 | 778 ft | 12 kts | 166° |
| 2026-05-08 18:27 | 41.95208 | 21.62748 | 778 ft | 14 kts | 166° |
| 2026-05-08 18:28 | 41.95146 | 21.62711 | 778 ft | 10 kts | 240° |
| 2026-05-08 18:28 | 41.95132 | 21.62642 | 778 ft | 7 kts | 256° |
| 2026-05-08 18:28 | 41.95129 | 21.62629 | 778 ft | 0 kts | 256° |
| 2026-05-08 18:30 | 41.95127 | 21.62615 | 778 ft | 4 kts | 256° |
| 2026-05-08 18:30 | 41.95116 | 21.62556 | 779 ft | 10 kts | 256° |
| 2026-05-08 18:30 | 41.95160 | 21.62491 | 779 ft | 9 kts | 347° |
| 2026-05-08 18:31 | 41.95172 | 21.62488 | 779 ft | 4 kts | 347° |
| 2026-05-08 18:31 | 41.95378 | 21.62419 | 778 ft | 70 kts | 345° |
| 2026-05-08 18:31 | 41.96110 | 21.62159 | 784 ft | 144 kts | 345° |
| 2026-05-08 18:31 | 41.97180 | 21.61796 | 1189 ft | 161 kts | 348° |
| 2026-05-08 18:32 | 41.98266 | 21.61479 | 1909 ft | 158 kts | 350° |
| 2026-05-08 18:32 | 41.99344 | 21.61198 | 2542 ft | 161 kts | 348° |
| 2026-05-08 18:32 | 42.00466 | 21.60808 | 2949 ft | 173 kts | 341° |
| 2026-05-08 18:32 | 42.01553 | 21.59973 | 3319 ft | 187 kts | 320° |
| 2026-05-08 18:33 | 42.02406 | 21.58644 | 3790 ft | 196 kts | 300° |
| 2026-05-08 18:33 | 42.02934 | 21.56907 | 4272 ft | 206 kts | 282° |
| 2026-05-08 18:33 | 42.03037 | 21.54939 | 4768 ft | 217 kts | 264° |
| 2026-05-08 18:33 | 42.02678 | 21.52936 | 5287 ft | 225 kts | 247° |
| 2026-05-08 18:34 | 42.01862 | 21.51038 | 5696 ft | 246 kts | 232° |
| 2026-05-08 18:34 | 42.00721 | 21.49225 | 6327 ft | 261 kts | 225° |
| 2026-05-08 18:34 | 41.99312 | 21.47613 | 7047 ft | 271 kts | 210° |
| 2026-05-08 18:34 | 41.97546 | 21.46711 | 7893 ft | 275 kts | 193° |
| 2026-05-08 18:35 | 41.95631 | 21.46433 | 8769 ft | 280 kts | 185° |
| 2026-05-08 18:35 | 41.93672 | 21.46286 | 9648 ft | 283 kts | 186° |
| 2026-05-08 18:35 | 41.91681 | 21.46117 | 10323 ft | 293 kts | 186° |
| 2026-05-08 18:35 | 41.89563 | 21.45927 | 10596 ft | 315 kts | 186° |
| 2026-05-08 18:36 | 41.87330 | 21.45783 | 11161 ft | 327 kts | 181° |
| 2026-05-08 18:36 | 41.85059 | 21.46291 | 11868 ft | 337 kts | 166° |
| 2026-05-08 18:36 | 41.82908 | 21.47638 | 12598 ft | 347 kts | 150° |
| 2026-05-08 18:36 | 41.81062 | 21.49777 | 13304 ft | 358 kts | 133° |
| 2026-05-08 18:37 | 41.79701 | 21.52623 | 14002 ft | 368 kts | 116° |
| 2026-05-08 18:37 | 41.78989 | 21.55943 | 14613 ft | 375 kts | 98° |
| 2026-05-08 18:37 | 41.79033 | 21.59430 | 15237 ft | 378 kts | 79° |
| 2026-05-08 18:37 | 41.79760 | 21.62825 | 15887 ft | 380 kts | 70° |
| 2026-05-08 18:38 | 41.80611 | 21.66175 | 16577 ft | 381 kts | 70° |
| 2026-05-08 18:38 | 41.81481 | 21.69555 | 17232 ft | 383 kts | 70° |
| 2026-05-08 18:38 | 41.82354 | 21.72942 | 17895 ft | 385 kts | 70° |
| 2026-05-08 18:38 | 41.83218 | 21.76306 | 18520 ft | 387 kts | 71° |
| 2026-05-08 18:39 | 41.84091 | 21.79735 | 19065 ft | 390 kts | 71° |
| 2026-05-08 18:39 | 41.84964 | 21.83186 | 19614 ft | 393 kts | 71° |
| 2026-05-08 18:39 | 41.85843 | 21.86666 | 20165 ft | 395 kts | 71° |
| 2026-05-08 18:39 | 41.86725 | 21.90171 | 20705 ft | 398 kts | 71° |
| 2026-05-08 18:40 | 41.87614 | 21.93711 | 21240 ft | 401 kts | 71° |
| 2026-05-08 18:40 | 41.88506 | 21.97268 | 21759 ft | 404 kts | 71° |
| 2026-05-08 18:40 | 41.89406 | 22.00857 | 22288 ft | 407 kts | 71° |
| 2026-05-08 18:40 | 41.90313 | 22.04474 | 22805 ft | 410 kts | 71° |
| 2026-05-08 18:41 | 41.91223 | 22.08109 | 23332 ft | 413 kts | 71° |
| 2026-05-08 18:41 | 41.92139 | 22.11779 | 23802 ft | 415 kts | 71° |
| 2026-05-08 18:41 | 41.93056 | 22.15464 | 24224 ft | 418 kts | 71° |
| 2026-05-08 18:41 | 41.93980 | 22.19186 | 24643 ft | 420 kts | 71° |
| 2026-05-08 18:42 | 41.94908 | 22.22917 | 25068 ft | 422 kts | 71° |
| 2026-05-08 18:42 | 41.95845 | 22.26676 | 25495 ft | 424 kts | 71° |
| 2026-05-08 18:42 | 41.96784 | 22.30439 | 25911 ft | 427 kts | 71° |
| 2026-05-08 18:42 | 41.97716 | 22.34244 | 26319 ft | 429 kts | 73° |
| 2026-05-08 18:43 | 41.98275 | 22.38191 | 26707 ft | 431 kts | 84° |
| 2026-05-08 18:43 | 41.98429 | 22.42211 | 27108 ft | 434 kts | 90° |
| 2026-05-08 18:43 | 41.98302 | 22.46283 | 27497 ft | 436 kts | 94° |
| 2026-05-08 18:43 | 41.98035 | 22.50351 | 27899 ft | 438 kts | 96° |
| 2026-05-08 18:44 | 41.97743 | 22.54441 | 28289 ft | 440 kts | 95° |
| 2026-05-08 18:44 | 41.97499 | 22.58541 | 28688 ft | 442 kts | 94° |
| 2026-05-08 18:44 | 41.97319 | 22.62687 | 29079 ft | 444 kts | 92° |
| 2026-05-08 18:44 | 41.97194 | 22.66849 | 29466 ft | 447 kts | 92° |
| 2026-05-08 18:45 | 41.97098 | 22.71032 | 29845 ft | 449 kts | 91° |
| 2026-05-08 18:45 | 41.97013 | 22.75176 | 30197 ft | 451 kts | 91° |
| 2026-05-08 18:45 | 41.96920 | 22.79388 | 30500 ft | 453 kts | 92° |
| 2026-05-08 18:45 | 41.96812 | 22.83630 | 30811 ft | 455 kts | 92° |
| 2026-05-08 18:46 | 41.96708 | 22.87887 | 31112 ft | 456 kts | 90° |
| 2026-05-08 18:46 | 41.96863 | 22.92164 | 31404 ft | 458 kts | 86° |
| 2026-05-08 18:46 | 41.97084 | 22.96434 | 31732 ft | 459 kts | 86° |
| 2026-05-08 18:46 | 41.97302 | 23.00704 | 32156 ft | 457 kts | 86° |
| 2026-05-08 18:47 | 41.97517 | 23.04955 | 32590 ft | 455 kts | 86° |
| 2026-05-08 18:47 | 41.97731 | 23.09199 | 33023 ft | 454 kts | 86° |
| 2026-05-08 18:47 | 41.97945 | 23.13428 | 33448 ft | 453 kts | 86° |
| 2026-05-08 18:47 | 41.98157 | 23.17640 | 33886 ft | 452 kts | 86° |
| 2026-05-08 18:48 | 41.98365 | 23.21852 | 34280 ft | 450 kts | 86° |
| 2026-05-08 18:48 | 41.98569 | 23.26052 | 34600 ft | 450 kts | 86° |
| 2026-05-08 18:48 | 41.98772 | 23.30260 | 34898 ft | 451 kts | 86° |
| 2026-05-08 18:48 | 41.98976 | 23.34468 | 35080 ft | 452 kts | 86° |
| 2026-05-08 18:49 | 41.99384 | 23.42845 | 35082 ft | 445 kts | 86° |
| 2026-05-08 18:49 | 41.99770 | 23.51132 | 35074 ft | 444 kts | 86° |
| 2026-05-08 18:50 | 42.00151 | 23.59388 | 35074 ft | 443 kts | 86° |
| 2026-05-08 18:50 | 42.00531 | 23.67658 | 35075 ft | 442 kts | 86° |
| 2026-05-08 18:51 | 42.00901 | 23.75865 | 35071 ft | 442 kts | 87° |
| 2026-05-08 18:51 | 42.01267 | 23.84111 | 35072 ft | 442 kts | 87° |
| 2026-05-08 18:52 | 42.01627 | 23.92344 | 35072 ft | 441 kts | 87° |
| 2026-05-08 18:52 | 42.01980 | 24.00640 | 35280 ft | 447 kts | 87° |
| 2026-05-08 18:53 | 42.02155 | 24.04806 | 35490 ft | 449 kts | 87° |
| 2026-05-08 18:53 | 42.02330 | 24.09006 | 35721 ft | 450 kts | 87° |
| 2026-05-08 18:53 | 42.02507 | 24.13223 | 35962 ft | 451 kts | 87° |
| 2026-05-08 18:53 | 42.02680 | 24.17433 | 36210 ft | 452 kts | 87° |
| 2026-05-08 18:54 | 42.02850 | 24.21660 | 36450 ft | 453 kts | 87° |
| 2026-05-08 18:54 | 42.03019 | 24.25886 | 36677 ft | 453 kts | 87° |
| 2026-05-08 18:54 | 42.03191 | 24.30129 | 36904 ft | 454 kts | 87° |
| 2026-05-08 18:54 | 42.03363 | 24.34378 | 37025 ft | 456 kts | 87° |
| 2026-05-08 18:55 | 42.03869 | 24.47151 | 37046 ft | 455 kts | 88° |
| 2026-05-08 18:56 | 42.04185 | 24.55656 | 37050 ft | 455 kts | 88° |
| 2026-05-08 18:56 | 42.04499 | 24.64144 | 37051 ft | 455 kts | 88° |
| 2026-05-08 18:57 | 42.04807 | 24.72636 | 37054 ft | 454 kts | 88° |
| 2026-05-08 18:57 | 42.05105 | 24.81121 | 37057 ft | 454 kts | 88° |
| 2026-05-08 18:58 | 42.05156 | 24.89572 | 37055 ft | 453 kts | 97° |
| 2026-05-08 18:58 | 42.04324 | 24.97994 | 37054 ft | 453 kts | 99° |
| 2026-05-08 18:59 | 42.03453 | 25.06397 | 37047 ft | 453 kts | 99° |
| 2026-05-08 18:59 | 42.02586 | 25.14800 | 37039 ft | 454 kts | 99° |
| 2026-05-08 19:00 | 42.01873 | 25.21793 | 37036 ft | 454 kts | 99° |
| 2026-05-08 19:00 | 42.00862 | 25.31648 | 37032 ft | 455 kts | 99° |
| 2026-05-08 19:01 | 41.99986 | 25.40071 | 37027 ft | 455 kts | 99° |
| 2026-05-08 19:01 | 41.99116 | 25.48416 | 37029 ft | 455 kts | 99° |
| 2026-05-08 19:02 | 41.98228 | 25.56842 | 37035 ft | 455 kts | 99° |
| 2026-05-08 19:02 | 41.97332 | 25.65274 | 37039 ft | 455 kts | 99° |
| 2026-05-08 19:03 | 41.96425 | 25.73700 | 37044 ft | 455 kts | 99° |
| 2026-05-08 19:03 | 41.95513 | 25.82126 | 37044 ft | 456 kts | 99° |
| 2026-05-08 19:04 | 41.94609 | 25.90493 | 36884 ft | 447 kts | 99° |
| 2026-05-08 19:04 | 41.94161 | 25.94597 | 36627 ft | 441 kts | 100° |
| 2026-05-08 19:04 | 41.93717 | 25.98647 | 36379 ft | 435 kts | 100° |
| 2026-05-08 19:04 | 41.93276 | 26.02653 | 36131 ft | 431 kts | 100° |
| 2026-05-08 19:05 | 41.92835 | 26.06626 | 35880 ft | 428 kts | 100° |
| 2026-05-08 19:05 | 41.92394 | 26.10563 | 35636 ft | 426 kts | 100° |
| 2026-05-08 19:05 | 41.91954 | 26.14492 | 35392 ft | 424 kts | 100° |
| 2026-05-08 19:05 | 41.91515 | 26.18404 | 35150 ft | 423 kts | 100° |
| 2026-05-08 19:06 | 41.91079 | 26.22305 | 34914 ft | 422 kts | 100° |
| 2026-05-08 19:06 | 41.90652 | 26.26130 | 34681 ft | 420 kts | 100° |
| 2026-05-08 19:06 | 41.90357 | 26.28758 | 34522 ft | 419 kts | 100° |
| 2026-05-08 19:06 | 41.89921 | 26.32616 | 34291 ft | 418 kts | 100° |
| 2026-05-08 19:07 | 41.89485 | 26.36475 | 34059 ft | 417 kts | 100° |
| 2026-05-08 19:07 | 41.89050 | 26.40320 | 33785 ft | 416 kts | 100° |
| 2026-05-08 19:07 | 41.88614 | 26.44160 | 33514 ft | 416 kts | 100° |
| 2026-05-08 19:07 | 41.88176 | 26.47990 | 33248 ft | 417 kts | 100° |
| 2026-05-08 19:08 | 41.87712 | 26.51837 | 33031 ft | 416 kts | 104° |
| 2026-05-08 19:08 | 41.85607 | 26.58968 | 33028 ft | 413 kts | 123° |
| 2026-05-08 19:08 | 41.83941 | 26.62063 | 32807 ft | 404 kts | 131° |
| 2026-05-08 19:09 | 41.82164 | 26.64930 | 32593 ft | 395 kts | 131° |
| 2026-05-08 19:09 | 41.80430 | 26.67729 | 32386 ft | 387 kts | 131° |
| 2026-05-08 19:09 | 41.78722 | 26.70492 | 32179 ft | 380 kts | 131° |
| 2026-05-08 19:09 | 41.77050 | 26.73196 | 31976 ft | 373 kts | 131° |
| 2026-05-08 19:10 | 41.75409 | 26.75846 | 31771 ft | 367 kts | 131° |
| 2026-05-08 19:10 | 41.73788 | 26.78462 | 31570 ft | 361 kts | 131° |
| 2026-05-08 19:10 | 41.72223 | 26.80985 | 31376 ft | 355 kts | 131° |
| 2026-05-08 19:10 | 41.70655 | 26.83510 | 31175 ft | 350 kts | 131° |
| 2026-05-08 19:11 | 41.69103 | 26.86004 | 30975 ft | 348 kts | 131° |
| 2026-05-08 19:11 | 41.67548 | 26.88498 | 30782 ft | 348 kts | 131° |
| 2026-05-08 19:11 | 41.66000 | 26.90983 | 30589 ft | 348 kts | 131° |
| 2026-05-08 19:11 | 41.64450 | 26.93468 | 30392 ft | 348 kts | 131° |
| 2026-05-08 19:12 | 41.62898 | 26.95950 | 30199 ft | 348 kts | 131° |
| 2026-05-08 19:12 | 41.61346 | 26.98432 | 29985 ft | 348 kts | 131° |
| 2026-05-08 19:12 | 41.59794 | 27.00922 | 29760 ft | 349 kts | 131° |
| 2026-05-08 19:12 | 41.58250 | 27.03406 | 29537 ft | 349 kts | 131° |
| 2026-05-08 19:13 | 41.56694 | 27.05910 | 29318 ft | 350 kts | 131° |
| 2026-05-08 19:13 | 41.55295 | 27.08588 | 29093 ft | 353 kts | 121° |
| 2026-05-08 19:13 | 41.54245 | 27.11546 | 28876 ft | 355 kts | 116° |
| 2026-05-08 19:13 | 41.53243 | 27.14564 | 28661 ft | 357 kts | 116° |
| 2026-05-08 19:14 | 41.52227 | 27.17611 | 28435 ft | 358 kts | 116° |
| 2026-05-08 19:14 | 41.51214 | 27.20635 | 28228 ft | 359 kts | 116° |
| 2026-05-08 19:14 | 41.50184 | 27.23697 | 28011 ft | 360 kts | 116° |
| 2026-05-08 19:14 | 41.49159 | 27.26742 | 27810 ft | 361 kts | 116° |
| 2026-05-08 19:15 | 41.48125 | 27.29807 | 27590 ft | 362 kts | 116° |
| 2026-05-08 19:15 | 41.47092 | 27.32875 | 27382 ft | 363 kts | 116° |
| 2026-05-08 19:15 | 41.46057 | 27.35952 | 27177 ft | 365 kts | 116° |
| 2026-05-08 19:15 | 41.45007 | 27.39089 | 26954 ft | 372 kts | 116° |
| 2026-05-08 19:16 | 41.43931 | 27.42272 | 26129 ft | 383 kts | 117° |
| 2026-05-08 19:16 | 41.42815 | 27.45553 | 25370 ft | 392 kts | 117° |
| 2026-05-08 19:16 | 41.41682 | 27.48873 | 24859 ft | 393 kts | 117° |
| 2026-05-08 19:16 | 41.40568 | 27.52148 | 24758 ft | 382 kts | 117° |
| 2026-05-08 19:17 | 41.39499 | 27.55304 | 24676 ft | 370 kts | 117° |
| 2026-05-08 19:17 | 41.38454 | 27.58387 | 24595 ft | 357 kts | 117° |
| 2026-05-08 19:17 | 41.37449 | 27.61351 | 24518 ft | 346 kts | 117° |
| 2026-05-08 19:17 | 41.36545 | 27.64309 | 24030 ft | 351 kts | 109° |
| 2026-05-08 19:18 | 41.36066 | 27.67557 | 23311 ft | 364 kts | 96° |
| 2026-05-08 19:18 | 41.36091 | 27.70957 | 23035 ft | 372 kts | 86° |
| 2026-05-08 19:18 | 41.36374 | 27.74387 | 22771 ft | 373 kts | 86° |
| 2026-05-08 19:18 | 41.36644 | 27.77817 | 22505 ft | 372 kts | 86° |
| 2026-05-08 19:19 | 41.36907 | 27.81241 | 22243 ft | 371 kts | 86° |
| 2026-05-08 19:19 | 41.37161 | 27.84597 | 21983 ft | 370 kts | 86° |
| 2026-05-08 19:19 | 41.37423 | 27.88045 | 21725 ft | 368 kts | 86° |
| 2026-05-08 19:19 | 41.37679 | 27.91373 | 21471 ft | 367 kts | 86° |
| 2026-05-08 19:20 | 41.37941 | 27.94759 | 21220 ft | 366 kts | 86° |
| 2026-05-08 19:20 | 41.38118 | 27.97045 | 21051 ft | 365 kts | 86° |
| 2026-05-08 19:20 | 41.38422 | 28.01493 | 20715 ft | 363 kts | 90° |
| 2026-05-08 19:20 | 41.38256 | 28.04820 | 20469 ft | 359 kts | 102° |
| 2026-05-08 19:21 | 41.37775 | 28.08075 | 20222 ft | 358 kts | 104° |
| 2026-05-08 19:21 | 41.37293 | 28.11313 | 19976 ft | 357 kts | 103° |
| 2026-05-08 19:21 | 41.36817 | 28.14553 | 19740 ft | 356 kts | 103° |
| 2026-05-08 19:21 | 41.36341 | 28.17780 | 19501 ft | 355 kts | 103° |
| 2026-05-08 19:22 | 41.35866 | 28.20998 | 19268 ft | 354 kts | 103° |
| 2026-05-08 19:22 | 41.35391 | 28.24215 | 19033 ft | 353 kts | 103° |
| 2026-05-08 19:22 | 41.34918 | 28.27414 | 18932 ft | 350 kts | 103° |
| 2026-05-08 19:22 | 41.34444 | 28.30602 | 19063 ft | 352 kts | 103° |
| 2026-05-08 19:23 | 41.33970 | 28.33794 | 19095 ft | 353 kts | 103° |
| 2026-05-08 19:23 | 41.33492 | 28.37012 | 19097 ft | 353 kts | 104° |
| 2026-05-08 19:23 | 41.33014 | 28.40211 | 19095 ft | 353 kts | 104° |
| 2026-05-08 19:23 | 41.32531 | 28.43416 | 19097 ft | 353 kts | 104° |
| 2026-05-08 19:24 | 41.32050 | 28.46579 | 19102 ft | 353 kts | 104° |
| 2026-05-08 19:24 | 41.31565 | 28.49771 | 19105 ft | 353 kts | 104° |
| 2026-05-08 19:24 | 41.31084 | 28.52963 | 19098 ft | 352 kts | 104° |
| 2026-05-08 19:24 | 41.30766 | 28.56204 | 19105 ft | 355 kts | 94° |
| 2026-05-08 19:25 | 41.30769 | 28.59481 | 19109 ft | 355 kts | 91° |
| 2026-05-08 19:25 | 41.30784 | 28.62770 | 19111 ft | 355 kts | 92° |
| 2026-05-08 19:25 | 41.30791 | 28.66052 | 19110 ft | 355 kts | 92° |
| 2026-05-08 19:25 | 41.30791 | 28.69327 | 19110 ft | 355 kts | 92° |
| 2026-05-08 19:26 | 41.30792 | 28.72607 | 19110 ft | 355 kts | 92° |
| 2026-05-08 19:26 | 41.30800 | 28.75881 | 19112 ft | 355 kts | 92° |
| 2026-05-08 19:26 | 41.30805 | 28.79177 | 19110 ft | 354 kts | 92° |
| 2026-05-08 19:26 | 41.30802 | 28.82456 | 19111 ft | 354 kts | 92° |
| 2026-05-08 19:27 | 41.30794 | 28.85739 | 19109 ft | 354 kts | 93° |
| 2026-05-08 19:27 | 41.30784 | 28.89023 | 19111 ft | 354 kts | 93° |
| 2026-05-08 19:27 | 41.30776 | 28.92258 | 19105 ft | 354 kts | 92° |
| 2026-05-08 19:27 | 41.30769 | 28.95538 | 19108 ft | 354 kts | 92° |
| 2026-05-08 19:28 | 41.30765 | 28.98808 | 19106 ft | 354 kts | 92° |
| 2026-05-08 19:28 | 41.30761 | 29.02077 | 19104 ft | 354 kts | 92° |
| 2026-05-08 19:28 | 41.30756 | 29.05357 | 19106 ft | 354 kts | 92° |
| 2026-05-08 19:28 | 41.30751 | 29.08641 | 19104 ft | 354 kts | 92° |
| 2026-05-08 19:29 | 41.30747 | 29.11917 | 19103 ft | 354 kts | 92° |
| 2026-05-08 19:29 | 41.30738 | 29.15186 | 19102 ft | 354 kts | 93° |
| 2026-05-08 19:29 | 41.30726 | 29.18463 | 19103 ft | 354 kts | 93° |
| 2026-05-08 19:29 | 41.30715 | 29.21731 | 19081 ft | 352 kts | 92° |
| 2026-05-08 19:30 | 41.30720 | 29.24935 | 18812 ft | 350 kts | 92° |
| 2026-05-08 19:30 | 41.30741 | 29.28155 | 18527 ft | 348 kts | 92° |
| 2026-05-08 19:30 | 41.30768 | 29.31374 | 18209 ft | 346 kts | 92° |
| 2026-05-08 19:30 | 41.30798 | 29.34565 | 17854 ft | 343 kts | 92° |
| 2026-05-08 19:31 | 41.30840 | 29.37718 | 17494 ft | 340 kts | 89° |
| 2026-05-08 19:31 | 41.31268 | 29.40812 | 17127 ft | 340 kts | 73° |
| 2026-05-08 19:31 | 41.32260 | 29.43662 | 16770 ft | 339 kts | 58° |
| 2026-05-08 19:31 | 41.33741 | 29.46083 | 16410 ft | 338 kts | 44° |
| 2026-05-08 19:32 | 41.35598 | 29.47979 | 16050 ft | 335 kts | 34° |
| 2026-05-08 19:32 | 41.37514 | 29.49721 | 15693 ft | 333 kts | 34° |
| 2026-05-08 19:32 | 41.39424 | 29.51465 | 15341 ft | 331 kts | 35° |
| 2026-05-08 19:32 | 41.41313 | 29.53191 | 15004 ft | 328 kts | 35° |
| 2026-05-08 19:33 | 41.43185 | 29.54903 | 14668 ft | 325 kts | 35° |
| 2026-05-08 19:33 | 41.45035 | 29.56622 | 14335 ft | 323 kts | 39° |
| 2026-05-08 19:33 | 41.46465 | 29.58817 | 14013 ft | 315 kts | 64° |
| 2026-05-08 19:33 | 41.47122 | 29.61576 | 13652 ft | 308 kts | 87° |
| 2026-05-08 19:34 | 41.46935 | 29.64379 | 13247 ft | 301 kts | 110° |
| 2026-05-08 19:34 | 41.46020 | 29.66802 | 12872 ft | 295 kts | 128° |
| 2026-05-08 19:34 | 41.44836 | 29.69046 | 12617 ft | 297 kts | 127° |
| 2026-05-08 19:34 | 41.43654 | 29.71308 | 12358 ft | 296 kts | 127° |
| 2026-05-08 19:35 | 41.42486 | 29.73554 | 12108 ft | 296 kts | 127° |
| 2026-05-08 19:35 | 41.41312 | 29.75813 | 11854 ft | 295 kts | 127° |
| 2026-05-08 19:35 | 41.40146 | 29.78054 | 11602 ft | 294 kts | 127° |
| 2026-05-08 19:35 | 41.38988 | 29.80280 | 11350 ft | 289 kts | 127° |
| 2026-05-08 19:36 | 41.37852 | 29.82464 | 11103 ft | 284 kts | 127° |
| 2026-05-08 19:36 | 41.36874 | 29.84722 | 10850 ft | 282 kts | 118° |
| 2026-05-08 19:36 | 41.36025 | 29.87060 | 10609 ft | 278 kts | 118° |
| 2026-05-08 19:36 | 41.35191 | 29.89340 | 10379 ft | 274 kts | 118° |
| 2026-05-08 19:37 | 41.34357 | 29.91609 | 10138 ft | 270 kts | 118° |
| 2026-05-08 19:37 | 41.33530 | 29.93857 | 9884 ft | 268 kts | 118° |
| 2026-05-08 19:37 | 41.32602 | 29.95969 | 9629 ft | 262 kts | 132° |
| 2026-05-08 19:37 | 41.31235 | 29.97499 | 9366 ft | 254 kts | 154° |
| 2026-05-08 19:38 | 41.29576 | 29.98163 | 9112 ft | 247 kts | 178° |
| 2026-05-08 19:38 | 41.27911 | 29.97890 | 8984 ft | 241 kts | 200° |
| 2026-05-08 19:38 | 41.26461 | 29.96795 | 8858 ft | 241 kts | 220° |
| 2026-05-08 19:38 | 41.25227 | 29.95283 | 8732 ft | 241 kts | 222° |
| 2026-05-08 19:39 | 41.24012 | 29.93796 | 8612 ft | 240 kts | 222° |
| 2026-05-08 19:39 | 41.22788 | 29.92307 | 8478 ft | 239 kts | 221° |
| 2026-05-08 19:39 | 41.21561 | 29.90815 | 8356 ft | 239 kts | 221° |
| 2026-05-08 19:39 | 41.20333 | 29.89323 | 8230 ft | 238 kts | 221° |
| 2026-05-08 19:40 | 41.19115 | 29.87845 | 8102 ft | 237 kts | 221° |
| 2026-05-08 19:40 | 41.17899 | 29.86369 | 7984 ft | 237 kts | 221° |
| 2026-05-08 19:40 | 41.16681 | 29.84890 | 7795 ft | 236 kts | 221° |
| 2026-05-08 19:40 | 41.15470 | 29.83421 | 7560 ft | 235 kts | 221° |
| 2026-05-08 19:41 | 41.14265 | 29.81963 | 7308 ft | 234 kts | 221° |
| 2026-05-08 19:41 | 41.13063 | 29.80512 | 7052 ft | 233 kts | 221° |
| 2026-05-08 19:41 | 41.11869 | 29.79065 | 6792 ft | 233 kts | 221° |
| 2026-05-08 19:41 | 41.10682 | 29.77627 | 6619 ft | 227 kts | 221° |
| 2026-05-08 19:42 | 41.09540 | 29.76241 | 6495 ft | 218 kts | 220° |
| 2026-05-08 19:42 | 41.08449 | 29.74919 | 6313 ft | 209 kts | 220° |
| 2026-05-08 19:42 | 41.07381 | 29.73627 | 6058 ft | 206 kts | 220° |
| 2026-05-08 19:42 | 41.06320 | 29.72346 | 5937 ft | 203 kts | 221° |
| 2026-05-08 19:43 | 41.05310 | 29.71125 | 5862 ft | 189 kts | 220° |
| 2026-05-08 19:43 | 41.04356 | 29.69961 | 5743 ft | 186 kts | 223° |
| 2026-05-08 19:43 | 41.03556 | 29.68597 | 5615 ft | 189 kts | 236° |
| 2026-05-08 19:43 | 41.02869 | 29.67079 | 5149 ft | 194 kts | 237° |
| 2026-05-08 19:44 | 41.02185 | 29.65566 | 4905 ft | 188 kts | 237° |
| 2026-05-08 19:44 | 41.01529 | 29.64114 | 4572 ft | 185 kts | 238° |
| 2026-05-08 19:44 | 41.00865 | 29.62647 | 4208 ft | 186 kts | 238° |
| 2026-05-08 19:44 | 41.00196 | 29.61168 | 3848 ft | 186 kts | 239° |
| 2026-05-08 19:45 | 40.99465 | 29.59763 | 3710 ft | 186 kts | 236° |
| 2026-05-08 19:45 | 40.98805 | 29.58296 | 3601 ft | 185 kts | 241° |
| 2026-05-08 19:45 | 40.98213 | 29.56776 | 3525 ft | 186 kts | 243° |
| 2026-05-08 19:45 | 40.97642 | 29.55240 | 3508 ft | 186 kts | 243° |
| 2026-05-08 19:46 | 40.97076 | 29.53699 | 3512 ft | 186 kts | 244° |
| 2026-05-08 19:46 | 40.96512 | 29.52155 | 3510 ft | 186 kts | 244° |
| 2026-05-08 19:46 | 40.95385 | 29.49073 | 3159 ft | 186 kts | 244° |
| 2026-05-08 19:47 | 40.94825 | 29.47540 | 2889 ft | 185 kts | 244° |
| 2026-05-08 19:47 | 40.94268 | 29.46019 | 2609 ft | 182 kts | 245° |
| 2026-05-08 19:47 | 40.93719 | 29.44519 | 2335 ft | 179 kts | 245° |
| 2026-05-08 19:47 | 40.93185 | 29.43062 | 2062 ft | 172 kts | 245° |
| 2026-05-08 19:48 | 40.92669 | 29.41655 | 1796 ft | 166 kts | 245° |
| 2026-05-08 19:48 | 40.92194 | 29.40360 | 1547 ft | 150 kts | 245° |
| 2026-05-08 19:48 | 40.91760 | 29.39179 | 1326 ft | 138 kts | 245° |
| 2026-05-08 19:48 | 40.91352 | 29.38064 | 1119 ft | 133 kts | 245° |
| 2026-05-08 19:49 | 40.90945 | 29.36956 | 921 ft | 132 kts | 245° |
| 2026-05-08 19:49 | 40.90549 | 29.35878 | 720 ft | 132 kts | 245° |
| 2026-05-08 19:49 | 40.90152 | 29.34769 | 499 ft | 131 kts | 245° |
| 2026-05-08 19:49 | 40.89752 | 29.33707 | 360 ft | 130 kts | 243° |
| 2026-05-08 19:50 | 40.89371 | 29.32703 | 323 ft | 103 kts | 244° |
| 2026-05-08 19:50 | 40.89118 | 29.31999 | 320 ft | 69 kts | 245° |
| 2026-05-08 19:50 | 40.88990 | 29.31649 | 323 ft | 58 kts | 243° |
| 2026-05-08 19:50 | 40.88874 | 29.31288 | 323 ft | 30 kts | 276° |
| 2026-05-08 19:51 | 40.88947 | 29.31009 | 320 ft | 22 kts | 323° |
| 2026-05-08 19:51 | 40.89029 | 29.31038 | 321 ft | 12 kts | 66° |
| 2026-05-08 19:51 | 40.89071 | 29.31147 | 320 ft | 14 kts | 67° |
| 2026-05-08 19:51 | 40.89113 | 29.31273 | 321 ft | 16 kts | 64° |
| 2026-05-08 19:52 | 40.89145 | 29.31361 | 320 ft | 16 kts | 65° |
| 2026-05-08 19:52 | 40.89190 | 29.31490 | 320 ft | 8 kts | 63° |
| 2026-05-08 19:52 | 40.89238 | 29.31485 | 321 ft | 8 kts | 333° |
| 2026-05-08 19:52 | 40.89293 | 29.31449 | 321 ft | 11 kts | 334° |
| 2026-05-08 19:53 | 40.89378 | 29.31398 | 321 ft | 16 kts | 336° |
| 2026-05-08 19:53 | 40.89490 | 29.31331 | 321 ft | 19 kts | 335° |
| 2026-05-08 19:53 | 40.89608 | 29.31257 | 321 ft | 19 kts | 334° |
| 2026-05-08 19:53 | 40.89727 | 29.31181 | 320 ft | 19 kts | 334° |
| 2026-05-08 19:54 | 40.89854 | 29.31100 | 313 ft | 23 kts | 333° |
| 2026-05-08 19:54 | 40.89990 | 29.31010 | 316 ft | 16 kts | 334° |
| 2026-05-08 19:54 | 40.90065 | 29.30972 | 320 ft | 9 kts | 2° |
| 2026-05-08 19:54 | 40.90101 | 29.31015 | 320 ft | 7 kts | 64° |
| 2026-05-08 19:55 | 40.90118 | 29.31068 | 320 ft | 6 kts | 66° |
| 2026-05-08 19:55 | 40.90135 | 29.31118 | 320 ft | 6 kts | 64° |
| 2026-05-08 19:55 | 40.90159 | 29.31178 | 320 ft | 9 kts | 63° |
| 2026-05-08 19:55 | 40.90194 | 29.31269 | 319 ft | 13 kts | 62° |
| 2026-05-08 19:56 | 40.90241 | 29.31399 | 320 ft | 15 kts | 65° |
| 2026-05-08 19:56 | 40.90297 | 29.31533 | 320 ft | 20 kts | 61° |
| 2026-05-08 19:56 | 40.90366 | 29.31722 | 319 ft | 26 kts | 67° |
| 2026-05-08 19:56 | 40.90434 | 29.31920 | 320 ft | 20 kts | 62° |
| 2026-05-08 19:57 | 40.90487 | 29.31999 | 320 ft | 8 kts | 346° |
| 2026-05-08 19:57 | 40.90544 | 29.31961 | 321 ft | 10 kts | 336° |
| 2026-05-08 19:57 | 40.90614 | 29.31918 | 321 ft | 11 kts | 323° |
| 2026-05-08 19:57 | 40.90607 | 29.31871 | 321 ft | 5 kts | 244° |
| 2026-05-08 19:58 | 40.90587 | 29.31817 | 319 ft | 8 kts | 244° |
| 2026-05-08 19:58 | 40.90558 | 29.31741 | 321 ft | 11 kts | 244° |
| 2026-05-08 19:58 | 40.90522 | 29.31643 | 320 ft | 13 kts | 244° |
| 2026-05-08 19:58 | 40.90505 | 29.31593 | 321 ft | 2 kts | 262° |
| 2026-05-08 19:59 | 40.90516 | 29.31585 | 321 ft | 3 kts | 341° |
| 2026-05-08 19:59 | 40.90547 | 29.31566 | 321 ft | 6 kts | 334° |
| 2026-05-08 19:59 | 40.90568 | 29.31553 | 321 ft | 1 kts | 333° |
| 2026-05-08 19:59 | 40.90569 | 29.31552 | 321 ft | 0 kts | 333° |